KDWH/DWH METAR and TAF weather

Enter ICAO airport designator
Station Type Date Time Source
KDWH METAR 2019/10/15 08:53 UTC NOAA

KDWH 150853Z AUTO 14003KT 10SM OVC006 25/23 A2993 RMK AO2 CIG 005V009 SLP134 T02500233 55006


Station Type Date Time Source
KDWH Decoded METAR 2019/10/15 08:53 UTC NOAA

HOUSTON HOOKS MEMORIAL, TX, United States (KDWH) 30-04N 95-33W 46M
Oct 15, 2019 - 04:53 AM EDT / 2019.10.15 0853 UTC
Wind: from the SE (140 degrees) at 3 MPH (3 KT):0
Visibility: 10 mile(s):0
Sky conditions: overcast
Temperature: 77.0 F (25.0 C)
Dew Point: 73.9 F (23.3 C)
Relative Humidity: 90%
Pressure (altimeter): 29.93 in. Hg (1013 hPa)
Pressure tendency: 0.02 inches (0.6 hPa) lower than three hours ago
ob: KDWH 150853Z AUTO 14003KT 10SM OVC006 25/23 A2993 RMK AO2 CIG 005V009 SLP134 T02500233 55006
cycle: 9

Station Type Date Time Source
KDWH TAF 2017/02/07 15:09 UTC NOAA

TAF
AMD KDWH 071507Z 0715/0812 23010KT P6SM BKN015
TEMPO 0715/0719 SCT015
FM071900 25010KT P6SM SCT025
FM080100 22005KT P6SM SCT250
TEMPO 0807/0809 3SM BR BKN013
FM080900 VRB03KT 2SM BR OVC008

Example: see airport list